createdAt,value
2018-05-23T00:02:08.233Z,55.61
2018-05-23T00:04:36.354Z,55.66
2018-05-23T00:07:04.556Z,56.05
2018-05-23T00:09:32.624Z,56.00
2018-05-23T00:12:00.761Z,56.25
2018-05-23T00:14:29.656Z,56.40
2018-05-23T00:16:57.749Z,56.41
2018-05-23T00:19:25.860Z,57.08
2018-05-23T00:21:53.939Z,56.96
2018-05-23T00:24:22.035Z,57.10
2018-05-23T00:26:50.168Z,57.04
2018-05-23T00:29:18.267Z,57.92
2018-05-23T00:31:46.370Z,58.17
2018-05-23T00:34:14.493Z,58.48
2018-05-23T00:36:42.585Z,58.35
2018-05-23T00:39:10.682Z,57.90
2018-05-23T00:41:38.908Z,57.83
2018-05-23T00:44:06.935Z,57.66
2018-05-23T00:46:35.024Z,57.54
2018-05-23T00:49:03.147Z,57.40
2018-05-23T00:51:31.250Z,57.76
2018-05-23T00:53:59.348Z,58.13
2018-05-23T00:56:27.463Z,57.74
2018-05-23T00:59:01.530Z,57.88
2018-05-23T01:01:29.680Z,58.24
2018-05-23T01:03:58.008Z,58.07
2018-05-23T01:06:26.566Z,58.10
2018-05-23T01:08:55.405Z,58.19
2018-05-23T01:11:23.540Z,58.18
2018-05-23T01:13:52.132Z,58.54
2018-05-23T01:16:20.258Z,59.55
2018-05-23T01:18:48.364Z,59.80
2018-05-23T01:21:16.473Z,61.18
2018-05-23T01:23:44.600Z,61.38
2018-05-23T01:26:12.734Z,61.03
2018-05-23T01:28:41.251Z,60.53
2018-05-23T01:31:09.377Z,60.59
2018-05-23T01:33:37.483Z,60.82
2018-05-23T01:36:06.084Z,61.14
2018-05-23T01:38:34.204Z,61.55
2018-05-23T01:41:03.071Z,61.47
2018-05-23T01:43:31.176Z,61.82
2018-05-23T01:45:59.304Z,62.43
2018-05-23T01:48:27.458Z,62.38
2018-05-23T01:50:56.104Z,62.80
2018-05-23T01:53:24.210Z,62.74
2018-05-23T01:55:52.308Z,63.42
2018-05-23T01:58:20.427Z,62.98
2018-05-23T02:00:48.562Z,63.09
2018-05-23T02:03:16.667Z,62.84
2018-05-23T02:05:44.788Z,63.54
2018-05-23T02:08:12.938Z,63.56
2018-05-23T02:10:41.068Z,63.64
2018-05-23T02:13:09.165Z,64.40
2018-05-23T02:15:37.287Z,65.48
2018-05-23T02:18:05.454Z,66.01
2018-05-23T02:20:33.557Z,66.50
2018-05-23T02:23:01.657Z,67.13
2018-05-23T02:25:29.786Z,67.00
2018-05-23T02:27:57.885Z,67.07
2018-05-23T02:30:26.614Z,67.16
2018-05-23T02:32:54.761Z,67.35
2018-05-23T02:35:22.947Z,67.07
2018-05-23T02:37:51.042Z,66.87
2018-05-23T02:40:19.185Z,66.64
2018-05-23T02:42:47.328Z,66.84
2018-05-23T02:45:15.421Z,66.88
2018-05-23T02:47:43.534Z,66.29
2018-05-23T02:50:12.132Z,65.77
2018-05-23T02:52:40.269Z,65.47
2018-05-23T02:55:08.383Z,65.47
2018-05-23T02:57:36.496Z,65.83
2018-05-23T03:00:04.602Z,65.81
2018-05-23T03:02:32.711Z,65.85
2018-05-23T03:05:00.888Z,66.13
2018-05-23T03:07:29.007Z,66.06
2018-05-23T03:09:57.160Z,66.22
2018-05-23T03:12:25.291Z,66.21
2018-05-23T03:14:53.399Z,66.29
2018-05-23T03:17:21.506Z,66.47
2018-05-23T03:19:49.629Z,66.58
2018-05-23T03:22:17.735Z,66.53
2018-05-23T03:24:45.835Z,67.30
2018-05-23T03:27:14.002Z,67.83
2018-05-23T03:29:42.132Z,68.05
2018-05-23T03:32:10.948Z,68.58
2018-05-23T03:34:39.052Z,68.60
2018-05-23T03:37:07.638Z,69.04
2018-05-23T03:39:35.760Z,69.04
2018-05-23T03:42:03.870Z,68.83
2018-05-23T03:44:31.983Z,69.30
2018-05-23T03:47:00.344Z,70.00
2018-05-23T03:49:28.436Z,69.92
2018-05-23T03:51:56.536Z,69.91
2018-05-23T03:54:24.660Z,70.23
2018-05-23T03:56:52.750Z,69.62
2018-05-23T04:02:36.921Z,70.07
2018-05-23T04:08:07.332Z,69.88
2018-05-23T04:10:35.441Z,69.27
2018-05-23T04:13:03.544Z,69.14
2018-05-23T04:15:32.714Z,69.61
2018-05-23T04:18:00.739Z,69.83
2018-05-23T04:20:28.857Z,70.02
2018-05-23T04:22:56.980Z,70.41
2018-05-23T04:25:25.101Z,71.26
2018-05-23T04:27:53.206Z,71.27
2018-05-23T04:30:21.330Z,70.72
2018-05-23T04:32:50.361Z,70.87
2018-05-23T04:35:18.476Z,72.08
2018-05-23T04:37:46.570Z,73.29
2018-05-23T04:40:14.684Z,73.52
2018-05-23T04:42:42.781Z,73.64
2018-05-23T04:45:10.891Z,74.16
2018-05-23T04:47:40.009Z,74.47
2018-05-23T04:50:13.719Z,74.97
2018-05-23T04:52:41.847Z,75.33
2018-05-23T04:55:10.321Z,74.81
2018-05-23T05:10:39.398Z,75.87
2018-05-23T05:13:07.541Z,76.14
2018-05-23T05:15:35.659Z,75.96
2018-05-23T05:18:03.800Z,75.50
2018-05-23T05:20:37.376Z,75.48
2018-05-23T05:23:05.489Z,75.13
2018-05-23T05:25:33.589Z,75.37
2018-05-23T05:28:01.715Z,75.44
2018-05-23T05:30:29.856Z,75.47
2018-05-23T05:32:57.961Z,75.21
2018-05-23T05:35:26.293Z,75.79
2018-05-23T05:37:54.425Z,76.55
2018-05-23T05:40:22.584Z,75.74
2018-05-23T05:42:56.357Z,75.86
2018-05-23T05:45:30.037Z,75.67
2018-05-23T05:47:58.155Z,75.98
2018-05-23T05:50:26.589Z,75.75
2018-05-23T05:52:54.661Z,76.19
2018-05-23T05:55:23.057Z,76.42
2018-05-23T05:57:51.156Z,76.50
2018-05-23T06:00:19.256Z,76.38
2018-05-23T06:02:47.804Z,76.34
2018-05-23T06:05:15.919Z,76.58
2018-05-23T06:07:44.589Z,76.72
2018-05-23T06:10:13.737Z,76.31
2018-05-23T06:12:41.853Z,75.69
2018-05-23T06:15:09.988Z,75.24
2018-05-23T06:17:38.112Z,75.32
2018-05-23T06:20:06.214Z,74.93
2018-05-23T06:22:34.321Z,75.30
2018-05-23T06:25:02.433Z,76.09
2018-05-23T06:27:31.603Z,77.00
2018-05-23T06:30:00.289Z,76.63
2018-05-23T06:32:28.874Z,76.95
2018-05-23T06:34:56.977Z,76.53
2018-05-23T06:37:25.078Z,77.00
2018-05-23T06:39:53.213Z,77.61
2018-05-23T06:42:21.373Z,77.88
2018-05-23T06:44:49.477Z,77.28
2018-05-23T06:47:18.102Z,78.17
2018-05-23T06:49:46.800Z,78.22
2018-05-23T06:52:14.917Z,77.75
2018-05-23T06:54:43.701Z,77.88
2018-05-23T06:57:11.821Z,77.80
2018-05-23T06:59:39.939Z,76.91
2018-05-23T07:02:08.045Z,76.99
2018-05-23T07:04:36.784Z,77.08
2018-05-23T07:07:04.889Z,77.16
2018-05-23T07:09:32.993Z,76.98
2018-05-23T07:12:01.109Z,76.48
2018-05-23T07:14:29.233Z,76.03
2018-05-23T07:16:57.376Z,76.15
2018-05-23T07:19:25.567Z,76.66
2018-05-23T07:21:53.633Z,76.66
2018-05-23T07:24:21.769Z,77.43
2018-05-23T07:26:50.263Z,77.29
2018-05-23T07:29:18.353Z,77.18
2018-05-23T07:31:46.577Z,77.27
2018-05-23T07:34:14.586Z,77.13
2018-05-23T07:36:42.691Z,76.41
2018-05-23T07:39:11.797Z,76.24
2018-05-23T07:41:39.904Z,75.93
2018-05-23T07:44:08.799Z,76.15
2018-05-23T07:46:36.970Z,76.21
2018-05-23T07:49:05.007Z,76.40
2018-05-23T07:51:33.861Z,76.65
2018-05-23T07:54:02.000Z,76.34
2018-05-23T07:56:30.308Z,76.47
2018-05-23T07:58:58.423Z,76.26
2018-05-23T08:01:27.005Z,76.07
2018-05-23T08:03:55.894Z,75.98
2018-05-23T08:06:24.001Z,75.73
2018-05-23T08:08:52.127Z,76.12
2018-05-23T08:11:20.339Z,75.65
2018-05-23T08:13:49.258Z,75.56
2018-05-23T08:16:17.354Z,75.16
2018-05-23T08:18:45.468Z,74.24
2018-05-23T08:21:19.277Z,74.20
2018-05-23T08:23:47.364Z,73.20
2018-05-23T08:26:15.464Z,73.43
2018-05-23T08:28:43.591Z,72.85
2018-05-23T08:31:11.696Z,72.00
2018-05-23T08:33:39.820Z,72.09
2018-05-23T08:36:07.946Z,72.55
2018-05-23T08:38:36.095Z,72.79
2018-05-23T08:41:04.247Z,72.34
2018-05-23T08:43:32.332Z,71.41
2018-05-23T08:46:00.469Z,71.24
2018-05-23T08:48:29.497Z,70.34
2018-05-23T08:50:57.625Z,70.08
2018-05-23T08:53:26.346Z,69.69
2018-05-23T08:55:55.191Z,69.80
2018-05-23T08:58:23.306Z,68.97
2018-05-23T09:00:57.091Z,68.75
2018-05-23T09:03:31.113Z,68.75
2018-05-23T09:06:04.758Z,68.49
2018-05-23T09:08:32.892Z,68.00
2018-05-23T09:11:00.992Z,67.87
2018-05-23T09:13:29.428Z,67.96
2018-05-23T09:15:58.172Z,67.39
2018-05-23T09:18:26.265Z,66.54
2018-05-23T09:20:54.663Z,66.76
2018-05-23T09:23:23.699Z,66.85
2018-05-23T09:25:51.828Z,67.15
2018-05-23T09:28:19.922Z,66.64
2018-05-23T09:30:48.095Z,66.63
2018-05-23T09:33:17.181Z,65.12
2018-05-23T09:35:45.345Z,65.82
2018-05-23T09:38:13.461Z,65.48
2018-05-23T09:40:41.705Z,65.60
2018-05-23T09:43:09.863Z,64.49
2018-05-23T09:45:37.949Z,65.30
2018-05-23T09:48:06.047Z,66.34
2018-05-23T09:50:34.157Z,66.42
2018-05-23T09:53:02.308Z,65.60
2018-05-23T09:55:30.435Z,66.16
2018-05-23T09:57:59.385Z,65.77
2018-05-23T10:00:32.439Z,65.84
2018-05-23T10:03:00.583Z,66.16
2018-05-23T10:05:28.664Z,65.54
2018-05-23T10:07:56.775Z,65.84
2018-05-23T10:10:24.889Z,65.83
2018-05-23T10:12:52.992Z,65.56
2018-05-23T10:15:21.135Z,65.98
2018-05-23T10:17:49.323Z,67.86
2018-05-23T10:20:17.415Z,68.29
2018-05-23T10:22:45.537Z,69.28
2018-05-23T10:25:13.640Z,69.36
2018-05-23T10:27:41.744Z,70.12
2018-05-23T10:30:10.092Z,69.15
2018-05-23T10:32:38.169Z,68.54
2018-05-23T10:35:06.276Z,68.17
2018-05-23T10:37:34.400Z,68.15
2018-05-23T10:40:02.837Z,69.45
2018-05-23T10:42:30.955Z,69.33
2018-05-23T10:44:59.066Z,69.17
2018-05-23T10:47:27.171Z,68.40
2018-05-23T10:50:00.945Z,68.83
2018-05-23T10:52:29.354Z,69.16
2018-05-23T10:54:57.452Z,69.79
2018-05-23T10:57:25.552Z,70.54
2018-05-23T10:59:53.673Z,71.11
2018-05-23T11:02:21.755Z,71.24
2018-05-23T11:04:50.189Z,71.61
2018-05-23T11:07:18.318Z,72.34
2018-05-23T11:09:46.416Z,72.59
2018-05-23T11:12:15.146Z,73.16
2018-05-23T11:14:43.586Z,73.53
2018-05-23T11:17:11.609Z,72.87
2018-05-23T11:19:39.760Z,73.17
2018-05-23T11:22:07.874Z,72.28
2018-05-23T11:24:35.956Z,70.58
2018-05-23T11:27:04.168Z,70.71
2018-05-23T11:29:32.273Z,68.29
2018-05-23T11:32:00.377Z,67.27
2018-05-23T11:34:28.790Z,65.58
2018-05-23T11:36:56.901Z,65.90
2018-05-23T11:39:25.002Z,66.10
2018-05-23T11:41:58.756Z,63.82
2018-05-23T11:44:27.644Z,63.98
2018-05-23T11:46:55.756Z,62.97
2018-05-23T11:49:23.860Z,63.67
2018-05-23T11:51:52.936Z,63.70
2018-05-23T11:54:21.044Z,63.59
2018-05-23T11:56:49.492Z,63.35
2018-05-23T11:59:17.616Z,62.09
2018-05-23T12:01:45.744Z,62.47
2018-05-23T12:04:13.869Z,62.11
2018-05-23T12:06:41.970Z,61.96
2018-05-23T12:09:10.142Z,61.73
2018-05-23T12:11:38.256Z,60.56
2018-05-23T12:14:06.410Z,60.74
2018-05-23T12:16:35.210Z,60.74
2018-05-23T12:19:03.330Z,60.63
2018-05-23T12:21:31.438Z,60.29
2018-05-23T12:23:59.541Z,61.10
2018-05-23T12:26:27.672Z,61.45
2018-05-23T12:28:56.585Z,61.49
2018-05-23T12:31:24.700Z,61.60
2018-05-23T12:33:53.292Z,61.19
2018-05-23T12:36:21.436Z,61.01
2018-05-23T12:38:49.600Z,61.02
2018-05-23T12:41:17.698Z,61.32
2018-05-23T12:43:45.806Z,62.13
2018-05-23T12:46:13.912Z,62.28
2018-05-23T12:48:42.020Z,61.92
2018-05-23T12:51:10.114Z,61.88
2018-05-23T12:53:38.236Z,61.67
2018-05-23T12:56:06.354Z,62.30
2018-05-23T12:58:34.469Z,62.49
2018-05-23T13:01:02.920Z,62.59
2018-05-23T13:03:31.135Z,61.66
2018-05-23T13:05:59.683Z,60.98
2018-05-23T13:08:27.841Z,60.23
2018-05-23T13:10:55.956Z,59.42
2018-05-23T13:13:24.055Z,61.32
2018-05-23T13:15:52.276Z,60.32
2018-05-23T13:18:20.370Z,58.35
2018-05-23T13:20:48.481Z,58.66
2018-05-23T13:23:16.596Z,59.67
2018-05-23T13:25:44.701Z,60.47
2018-05-23T13:28:13.450Z,61.73
2018-05-23T13:30:41.569Z,61.95
2018-05-23T13:33:10.232Z,58.87
2018-05-23T13:48:44.113Z,57.92
2018-05-23T13:51:17.790Z,58.37
2018-05-23T13:53:45.930Z,58.48
2018-05-23T13:56:14.800Z,58.38
2018-05-23T13:58:42.930Z,57.04
2018-05-23T14:01:11.072Z,56.75
2018-05-23T14:03:39.200Z,56.03
2018-05-23T14:06:07.309Z,55.68
2018-05-23T14:08:35.444Z,53.48
2018-05-23T14:11:03.592Z,52.88
2018-05-23T14:13:31.762Z,53.24
2018-05-23T14:15:59.874Z,53.04
2018-05-23T14:18:28.013Z,48.43
2018-05-23T14:20:56.094Z,47.66
2018-05-23T14:23:24.216Z,47.07
2018-05-23T14:25:52.378Z,47.09
2018-05-23T14:28:20.528Z,45.26
2018-05-23T14:30:48.616Z,46.69
2018-05-23T14:33:16.737Z,46.58
2018-05-23T14:35:44.931Z,49.54
2018-05-23T14:38:13.320Z,51.03
2018-05-23T14:40:42.236Z,51.44
2018-05-23T14:43:10.341Z,49.84
2018-05-23T14:45:38.437Z,48.52
2018-05-23T14:48:06.543Z,48.77
2018-05-23T14:50:34.655Z,47.98
2018-05-23T14:53:02.827Z,48.31
2018-05-23T14:55:30.947Z,50.09
2018-05-23T14:57:59.378Z,51.07
2018-05-23T15:00:27.496Z,52.08
2018-05-23T15:02:55.608Z,52.21
2018-05-23T15:05:23.715Z,52.13
2018-05-23T15:07:51.825Z,48.16
2018-05-23T15:10:19.957Z,46.47
2018-05-23T15:12:48.077Z,43.92
2018-05-23T15:15:16.180Z,44.86
2018-05-23T15:17:44.296Z,44.92
2018-05-23T15:20:12.494Z,45.05
2018-05-23T15:22:41.188Z,44.80
2018-05-23T15:25:09.633Z,44.10
2018-05-23T15:27:38.386Z,44.33
2018-05-23T15:30:06.490Z,44.52
2018-05-23T15:32:34.603Z,44.50
2018-05-23T15:35:02.758Z,45.28
2018-05-23T15:37:30.876Z,44.82
2018-05-23T15:39:58.987Z,44.79
2018-05-23T15:42:27.100Z,45.03
2018-05-23T15:44:55.196Z,46.08
2018-05-23T15:47:24.268Z,46.41
2018-05-23T15:49:52.390Z,47.25
2018-05-23T15:52:20.493Z,47.68
2018-05-23T15:54:48.629Z,47.55
2018-05-23T15:57:17.201Z,47.55
2018-05-23T15:59:46.047Z,47.33
2018-05-23T16:02:14.190Z,47.55
2018-05-23T16:04:42.312Z,46.57
2018-05-23T16:07:10.428Z,47.03
2018-05-23T16:09:38.612Z,46.96
2018-05-23T16:12:06.742Z,47.56
2018-05-23T16:14:34.858Z,47.87
2018-05-23T16:17:08.645Z,48.05
2018-05-23T16:19:36.751Z,48.73
2018-05-23T16:22:04.857Z,48.97
2018-05-23T16:24:33.115Z,49.70
2018-05-23T16:27:01.210Z,50.04
2018-05-23T16:29:35.160Z,50.17
2018-05-23T16:32:03.276Z,50.19
2018-05-23T16:34:31.428Z,49.86
2018-05-23T16:36:59.509Z,49.61
2018-05-23T16:39:28.268Z,49.42
2018-05-23T16:41:56.915Z,48.78
2018-05-23T16:44:25.126Z,48.82
2018-05-23T16:46:53.136Z,48.54
2018-05-23T16:49:21.285Z,46.99
2018-05-23T16:51:49.718Z,47.17
2018-05-23T16:54:17.858Z,46.91
2018-05-23T16:56:45.957Z,47.08
2018-05-23T16:59:14.061Z,47.14
2018-05-23T17:01:42.201Z,47.56
2018-05-23T17:04:10.700Z,47.68
2018-05-23T17:06:38.809Z,47.17
2018-05-23T17:09:07.579Z,46.90
2018-05-23T17:11:35.698Z,47.16
2018-05-23T17:14:03.821Z,47.16
2018-05-23T17:16:31.952Z,47.19
2018-05-23T17:19:00.064Z,47.71
2018-05-23T17:21:28.173Z,47.82
2018-05-23T17:23:56.321Z,47.99
2018-05-23T17:26:25.414Z,48.21
2018-05-23T17:28:53.526Z,47.96
2018-05-23T17:31:21.649Z,48.00
2018-05-23T17:33:49.744Z,47.90
2018-05-23T17:36:17.865Z,48.00
2018-05-23T17:38:45.974Z,47.93
2018-05-23T17:41:19.630Z,47.47
2018-05-23T17:43:47.772Z,47.57
2018-05-23T17:46:15.869Z,47.64
2018-05-23T18:01:44.015Z,48.80
2018-05-23T18:04:12.413Z,49.02
2018-05-23T18:06:40.538Z,49.45
2018-05-23T18:09:08.638Z,49.46
2018-05-23T18:11:36.876Z,49.68
2018-05-23T18:14:05.002Z,49.52
2018-05-23T18:16:33.140Z,49.18
2018-05-23T18:19:01.270Z,49.37
2018-05-23T18:21:29.371Z,49.27
2018-05-23T18:23:57.500Z,49.49
2018-05-23T18:26:25.688Z,48.81
2018-05-23T18:28:53.788Z,48.79
2018-05-23T18:31:21.896Z,49.01
2018-05-23T18:33:50.029Z,48.77
2018-05-23T18:36:18.450Z,47.91
2018-05-23T18:38:46.564Z,47.53
2018-05-23T18:41:14.688Z,47.44
2018-05-23T18:43:42.819Z,47.15
2018-05-23T18:46:10.932Z,47.19
2018-05-23T18:48:39.044Z,46.54
2018-05-23T18:51:07.157Z,46.33
2018-05-23T18:53:35.273Z,46.17
2018-05-23T18:56:03.365Z,46.54
2018-05-23T18:58:31.481Z,46.56
2018-05-23T19:01:00.082Z,46.41
2018-05-23T19:03:28.173Z,46.34
2018-05-23T19:05:56.289Z,46.90
2018-05-23T19:08:24.383Z,46.60
2018-05-23T19:10:52.536Z,46.39
2018-05-23T19:13:20.641Z,46.44
2018-05-23T19:28:53.855Z,44.76
2018-05-23T19:31:27.413Z,44.95
2018-05-23T19:33:55.777Z,45.30
2018-05-23T19:36:23.918Z,45.20
2018-05-23T19:38:52.032Z,45.07
2018-05-23T19:54:20.161Z,43.93
2018-05-23T19:56:48.259Z,42.97
2018-05-23T19:59:16.462Z,42.27
2018-05-23T20:01:44.578Z,43.26
2018-05-23T20:04:12.700Z,42.89
2018-05-23T20:06:40.802Z,42.83
2018-05-23T20:09:09.690Z,43.16
2018-05-23T20:11:37.785Z,42.72
2018-05-23T20:14:05.976Z,43.23
2018-05-23T20:16:34.026Z,43.22
2018-05-23T20:19:02.153Z,43.54
2018-05-23T20:21:30.309Z,43.62
2018-05-23T20:23:58.481Z,43.54
2018-05-23T20:26:26.552Z,43.00
2018-05-23T20:28:55.582Z,43.33
2018-05-23T20:31:24.440Z,43.07
2018-05-23T20:33:53.319Z,43.11
2018-05-23T20:36:21.454Z,43.21
2018-05-23T20:38:49.540Z,42.90
2018-05-23T20:41:17.644Z,42.85
2018-05-23T20:43:46.921Z,42.39
2018-05-23T20:46:15.061Z,42.32
2018-05-23T20:48:43.191Z,42.76
2018-05-23T20:51:11.312Z,42.44
2018-05-23T20:53:39.409Z,42.62
2018-05-23T20:56:07.498Z,42.71
2018-05-23T20:58:35.746Z,42.75
2018-05-23T21:01:04.145Z,42.92
2018-05-23T21:03:32.957Z,42.80
2018-05-23T21:06:01.081Z,42.69
2018-05-23T21:08:29.686Z,42.99
2018-05-23T21:10:58.150Z,43.23
2018-05-23T21:13:26.251Z,43.00
2018-05-23T21:15:54.340Z,43.36
2018-05-23T21:18:23.077Z,43.18
2018-05-23T21:20:51.174Z,43.26
2018-05-23T21:23:20.320Z,43.59
2018-05-23T21:25:48.433Z,43.50
2018-05-23T21:28:16.895Z,43.51
2018-05-23T21:30:45.008Z,43.19
2018-05-23T21:33:13.093Z,43.15
2018-05-23T21:35:41.201Z,43.02
2018-05-23T21:38:09.293Z,42.92
2018-05-23T21:40:37.377Z,43.15
2018-05-23T21:56:05.501Z,43.94
2018-05-23T21:58:33.608Z,44.19
2018-05-23T22:01:03.093Z,44.16
2018-05-23T22:03:37.261Z,44.30
2018-05-23T22:06:10.726Z,44.36
2018-05-23T22:08:38.851Z,44.29
2018-05-23T22:13:41.327Z,44.40
2018-05-23T22:16:09.561Z,44.57
2018-05-23T22:18:37.656Z,44.53
2018-05-23T22:21:05.767Z,44.84
2018-05-23T22:23:33.881Z,45.03
2018-05-23T22:26:01.961Z,45.36
2018-05-23T22:28:30.049Z,45.26
2018-05-23T22:30:58.171Z,45.15
2018-05-23T22:33:26.278Z,45.08
2018-05-23T22:35:54.456Z,45.21
2018-05-23T22:38:22.472Z,45.21
2018-05-23T22:40:50.571Z,45.33
2018-05-23T22:43:18.668Z,45.57
2018-05-23T22:45:46.773Z,45.38
2018-05-23T22:48:15.222Z,45.61
2018-05-23T22:50:44.320Z,45.83
2018-05-23T22:53:12.429Z,46.02
2018-05-23T22:55:40.525Z,46.30
2018-05-23T22:58:08.634Z,46.37
2018-05-23T23:00:36.740Z,46.38
2018-05-23T23:03:04.842Z,46.56
2018-05-23T23:05:32.934Z,47.09
2018-05-23T23:08:01.036Z,47.15
2018-05-23T23:10:29.192Z,47.51
2018-05-23T23:12:57.276Z,47.42
2018-05-23T23:15:25.367Z,47.56
2018-05-23T23:17:53.468Z,48.23
2018-05-23T23:20:21.571Z,48.22
2018-05-23T23:22:49.690Z,48.53
2018-05-23T23:25:17.809Z,48.82
2018-05-23T23:27:45.936Z,48.89
2018-05-23T23:30:14.002Z,49.13
2018-05-23T23:32:42.154Z,49.25
2018-05-23T23:35:10.240Z,49.48
2018-05-23T23:37:38.344Z,49.56
2018-05-23T23:40:06.436Z,49.63
2018-05-23T23:42:34.560Z,49.47
2018-05-23T23:45:02.714Z,49.30
2018-05-23T23:47:30.908Z,49.33
2018-05-23T23:49:58.917Z,49.72
2018-05-23T23:52:27.016Z,49.96
2018-05-23T23:54:55.099Z,50.14
2018-05-23T23:57:23.222Z,50.27
2018-05-23T23:59:51.312Z,50.24
